sensor_id;sensor_type;location;lat;lon;timestamp;temperature;humidity
1103;DHT22;538;42.654;23.376;2023-06-14T00:05:29;18.30;97.20
1103;DHT22;538;42.654;23.376;2023-06-14T00:20:22;18.30;97.10
1103;DHT22;538;42.654;23.376;2023-06-14T00:22:49;18.50;96.60
1103;DHT22;538;42.654;23.376;2023-06-14T00:25:17;17.80;96.80
1103;DHT22;538;42.654;23.376;2023-06-14T00:30:13;18.50;96.00
1103;DHT22;538;42.654;23.376;2023-06-14T00:32:41;18.50;96.20
1103;DHT22;538;42.654;23.376;2023-06-14T00:42:32;17.90;94.30
1103;DHT22;538;42.654;23.376;2023-06-14T00:47:28;17.80;95.30
1103;DHT22;538;42.654;23.376;2023-06-14T00:49:55;18.00;95.40
1103;DHT22;538;42.654;23.376;2023-06-14T00:52:22;18.80;95.70
1103;DHT22;538;42.654;23.376;2023-06-14T00:54:50;17.60;95.40
1103;DHT22;538;42.654;23.376;2023-06-14T01:29:39;18.30;95.20
1103;DHT22;538;42.654;23.376;2023-06-14T01:44:32;17.90;94.50
1103;DHT22;538;42.654;23.376;2023-06-14T01:46:59;18.30;95.10
1103;DHT22;538;42.654;23.376;2023-06-14T01:49:26;18.50;94.70
1103;DHT22;538;42.654;23.376;2023-06-14T02:04:12;18.70;94.80
1103;DHT22;538;42.654;23.376;2023-06-14T02:11:33;18.50;93.90
1103;DHT22;538;42.654;23.376;2023-06-14T02:14:00;18.10;94.00
1103;DHT22;538;42.654;23.376;2023-06-14T02:18:56;17.80;93.60
1103;DHT22;538;42.654;23.376;2023-06-14T02:31:12;18.20;96.60
1103;DHT22;538;42.654;23.376;2023-06-14T02:43:31;19.00;97.40
1103;DHT22;538;42.654;23.376;2023-06-14T03:13:13;18.50;95.20
1103;DHT22;538;42.654;23.376;2023-06-14T03:20:38;19.20;95.60
1103;DHT22;538;42.654;23.376;2023-06-14T03:40:22;18.10;96.00
1103;DHT22;538;42.654;23.376;2023-06-14T04:02:38;18.20;95.50
1103;DHT22;538;42.654;23.376;2023-06-14T04:07:34;18.50;95.40
1103;DHT22;538;42.654;23.376;2023-06-14T04:10:06;18.60;94.90
1103;DHT22;538;42.654;23.376;2023-06-14T04:22:27;18.10;94.50
1103;DHT22;538;42.654;23.376;2023-06-14T04:27:22;18.80;92.60
1103;DHT22;538;42.654;23.376;2023-06-14T04:44:46;18.10;92.80
1103;DHT22;538;42.654;23.376;2023-06-14T04:47:14;19.00;93.20
1103;DHT22;538;42.654;23.376;2023-06-14T04:49:42;18.20;92.00
1103;DHT22;538;42.654;23.376;2023-06-14T04:57:07;18.90;91.90
1103;DHT22;538;42.654;23.376;2023-06-14T05:02:06;18.60;91.10
1103;DHT22;538;42.654;23.376;2023-06-14T05:04:34;19.00;90.10
1103;DHT22;538;42.654;23.376;2023-06-14T05:09:34;19.20;88.20
1103;DHT22;538;42.654;23.376;2023-06-14T05:12:01;19.10;88.20
1103;DHT22;538;42.654;23.376;2023-06-14T05:14:28;19.20;88.00
1103;DHT22;538;42.654;23.376;2023-06-14T05:16:56;19.30;88.00
1103;DHT22;538;42.654;23.376;2023-06-14T05:19:23;19.40;88.30
1103;DHT22;538;42.654;23.376;2023-06-14T05:21:50;19.20;88.60
1103;DHT22;538;42.654;23.376;2023-06-14T05:24:17;19.30;88.10
1103;DHT22;538;42.654;23.376;2023-06-14T05:26:46;19.50;87.40
1103;DHT22;538;42.654;23.376;2023-06-14T05:36:35;19.50;83.90
1103;DHT22;538;42.654;23.376;2023-06-14T05:39:03;19.40;81.50
1103;DHT22;538;42.654;23.376;2023-06-14T05:41:31;19.70;79.20
1103;DHT22;538;42.654;23.376;2023-06-14T05:43:59;19.80;77.00
1103;DHT22;538;42.654;23.376;2023-06-14T05:46:26;19.70;76.90
1103;DHT22;538;42.654;23.376;2023-06-14T05:48:54;19.80;78.40
1103;DHT22;538;42.654;23.376;2023-06-14T05:51:22;19.80;79.10
1103;DHT22;538;42.654;23.376;2023-06-14T05:53:50;19.80;78.80
1103;DHT22;538;42.654;23.376;2023-06-14T05:58:45;20.00;78.20
1103;DHT22;538;42.654;23.376;2023-06-14T06:01:14;20.10;78.40
1103;DHT22;538;42.654;23.376;2023-06-14T06:03:41;20.20;78.70
1103;DHT22;538;42.654;23.376;2023-06-14T06:06:11;20.20;78.70
1103;DHT22;538;42.654;23.376;2023-06-14T06:08:39;20.20;78.20
1103;DHT22;538;42.654;23.376;2023-06-14T06:11:06;20.20;77.30
1103;DHT22;538;42.654;23.376;2023-06-14T06:13:33;20.40;76.70
1103;DHT22;538;42.654;23.376;2023-06-14T06:18:29;20.60;75.30
1103;DHT22;538;42.654;23.376;2023-06-14T06:30:46;21.00;66.70
1103;DHT22;538;42.654;23.376;2023-06-14T06:33:13;21.00;64.40
1103;DHT22;538;42.654;23.376;2023-06-14T06:35:42;20.90;63.10
1103;DHT22;538;42.654;23.376;2023-06-14T06:38:09;20.80;61.20
1103;DHT22;538;42.654;23.376;2023-06-14T06:40:36;20.90;60.10
1103;DHT22;538;42.654;23.376;2023-06-14T06:43:03;20.90;60.70
1103;DHT22;538;42.654;23.376;2023-06-14T06:45:30;20.80;61.40
1103;DHT22;538;42.654;23.376;2023-06-14T06:47:57;21.00;63.50
1103;DHT22;538;42.654;23.376;2023-06-14T06:50:24;21.10;64.30
1103;DHT22;538;42.654;23.376;2023-06-14T06:52:53;21.00;63.60
1103;DHT22;538;42.654;23.376;2023-06-14T06:55:20;20.80;63.70
1103;DHT22;538;42.654;23.376;2023-06-14T06:57:47;21.00;62.50
1103;DHT22;538;42.654;23.376;2023-06-14T07:00:16;20.70;59.70
1103;DHT22;538;42.654;23.376;2023-06-14T07:02:43;21.00;60.30
1103;DHT22;538;42.654;23.376;2023-06-14T07:05:10;20.90;63.00
1103;DHT22;538;42.654;23.376;2023-06-14T07:07:37;21.10;64.70
1103;DHT22;538;42.654;23.376;2023-06-14T07:10:07;20.80;65.90
1103;DHT22;538;42.654;23.376;2023-06-14T07:12:34;20.90;65.80
1103;DHT22;538;42.654;23.376;2023-06-14T07:15:06;21.00;62.70
1103;DHT22;538;42.654;23.376;2023-06-14T07:20:01;21.00;59.70
1103;DHT22;538;42.654;23.376;2023-06-14T07:22:38;20.90;60.90
1103;DHT22;538;42.654;23.376;2023-06-14T07:25:09;21.40;63.70
1103;DHT22;538;42.654;23.376;2023-06-14T07:27:38;21.10;65.00
1103;DHT22;538;42.654;23.376;2023-06-14T07:30:06;21.20;65.10
1103;DHT22;538;42.654;23.376;2023-06-14T07:32:34;21.30;62.80
1103;DHT22;538;42.654;23.376;2023-06-14T07:35:01;21.30;61.20
1103;DHT22;538;42.654;23.376;2023-06-14T07:39:56;21.50;62.20
1103;DHT22;538;42.654;23.376;2023-06-14T07:42:24;21.80;59.30
1103;DHT22;538;42.654;23.376;2023-06-14T07:44:51;21.80;56.40
1103;DHT22;538;42.654;23.376;2023-06-14T07:49:46;22.00;51.30
1103;DHT22;538;42.654;23.376;2023-06-14T07:57:08;22.20;48.20
1103;DHT22;538;42.654;23.376;2023-06-14T07:59:36;22.30;45.40
1103;DHT22;538;42.654;23.376;2023-06-14T08:02:04;22.40;44.70
1103;DHT22;538;42.654;23.376;2023-06-14T08:04:31;22.40;45.40
1103;DHT22;538;42.654;23.376;2023-06-14T08:09:26;22.60;46.20
1103;DHT22;538;42.654;23.376;2023-06-14T08:16:50;22.70;40.10
1103;DHT22;538;42.654;23.376;2023-06-14T08:19:17;22.90;40.50
1103;DHT22;538;42.654;23.376;2023-06-14T08:21:45;23.00;41.80
1103;DHT22;538;42.654;23.376;2023-06-14T08:24:12;23.00;42.70
1103;DHT22;538;42.654;23.376;2023-06-14T08:26:40;23.20;43.00
1103;DHT22;538;42.654;23.376;2023-06-14T08:34:03;23.60;39.50
1103;DHT22;538;42.654;23.376;2023-06-14T08:38:57;23.70;38.80
1103;DHT22;538;42.654;23.376;2023-06-14T08:41:24;23.90;37.60
1103;DHT22;538;42.654;23.376;2023-06-14T08:43:53;24.00;37.60
1103;DHT22;538;42.654;23.376;2023-06-14T08:46:20;24.20;35.40
1103;DHT22;538;42.654;23.376;2023-06-14T08:48:49;24.20;34.60
1103;DHT22;538;42.654;23.376;2023-06-14T08:51:20;24.40;32.10
1103;DHT22;538;42.654;23.376;2023-06-14T08:53:53;24.30;31.30
1103;DHT22;538;42.654;23.376;2023-06-14T08:56:24;24.40;29.40
1103;DHT22;538;42.654;23.376;2023-06-14T08:58:53;24.60;28.90
1103;DHT22;538;42.654;23.376;2023-06-14T09:01:22;24.50;29.40
1103;DHT22;538;42.654;23.376;2023-06-14T09:06:18;24.70;29.70
1103;DHT22;538;42.654;23.376;2023-06-14T09:08:49;24.80;29.30
1103;DHT22;538;42.654;23.376;2023-06-14T09:11:17;24.90;28.90
1103;DHT22;538;42.654;23.376;2023-06-14T09:16:12;25.00;26.60
1103;DHT22;538;42.654;23.376;2023-06-14T09:18:40;25.20;27.50
1103;DHT22;538;42.654;23.376;2023-06-14T09:21:09;25.20;27.70
1103;DHT22;538;42.654;23.376;2023-06-14T09:23:39;25.40;26.80
1103;DHT22;538;42.654;23.376;2023-06-14T09:26:07;25.30;26.80
1103;DHT22;538;42.654;23.376;2023-06-14T09:31:02;25.20;26.90
1103;DHT22;538;42.654;23.376;2023-06-14T09:33:31;25.20;26.10
1103;DHT22;538;42.654;23.376;2023-06-14T09:40:58;25.10;26.80
1103;DHT22;538;42.654;23.376;2023-06-14T09:43:25;24.90;26.60
1103;DHT22;538;42.654;23.376;2023-06-14T09:45:54;25.10;26.40
1103;DHT22;538;42.654;23.376;2023-06-14T09:48:21;25.10;26.90
1103;DHT22;538;42.654;23.376;2023-06-14T09:50:50;25.00;27.00
1103;DHT22;538;42.654;23.376;2023-06-14T09:53:21;25.10;26.80
1103;DHT22;538;42.654;23.376;2023-06-14T09:55:50;25.10;26.40
1103;DHT22;538;42.654;23.376;2023-06-14T09:58:20;25.20;24.70
1103;DHT22;538;42.654;23.376;2023-06-14T10:00:50;25.20;24.50
1103;DHT22;538;42.654;23.376;2023-06-14T10:03:25;25.00;25.00
1103;DHT22;538;42.654;23.376;2023-06-14T10:05:56;25.10;25.70
1103;DHT22;538;42.654;23.376;2023-06-14T10:08:27;25.10;26.20
1103;DHT22;538;42.654;23.376;2023-06-14T10:10:58;25.30;25.90
1103;DHT22;538;42.654;23.376;2023-06-14T10:13:28;25.30;23.90
1103;DHT22;538;42.654;23.376;2023-06-14T10:16:00;25.40;23.10
1103;DHT22;538;42.654;23.376;2023-06-14T10:18:34;25.60;24.20
1103;DHT22;538;42.654;23.376;2023-06-14T10:23:49;26.40;22.30
1103;DHT22;538;42.654;23.376;2023-06-14T10:26:20;26.60;23.50
1103;DHT22;538;42.654;23.376;2023-06-14T10:28:59;26.90;21.30
1103;DHT22;538;42.654;23.376;2023-06-14T10:31:40;27.20;19.60
1103;DHT22;538;42.654;23.376;2023-06-14T10:34:08;27.40;19.50
1103;DHT22;538;42.654;23.376;2023-06-14T10:36:35;27.50;18.60
1103;DHT22;538;42.654;23.376;2023-06-14T10:39:08;27.70;18.30
1103;DHT22;538;42.654;23.376;2023-06-14T10:41:38;28.00;17.40
1103;DHT22;538;42.654;23.376;2023-06-14T10:44:40;28.20;16.60
1103;DHT22;538;42.654;23.376;2023-06-14T10:47:09;28.30;15.60
1103;DHT22;538;42.654;23.376;2023-06-14T10:49:41;28.30;16.50
1103;DHT22;538;42.654;23.376;2023-06-14T10:52:10;28.40;15.50
1103;DHT22;538;42.654;23.376;2023-06-14T10:55:06;28.40;13.50
1103;DHT22;538;42.654;23.376;2023-06-14T10:57:37;28.50;14.50
1103;DHT22;538;42.654;23.376;2023-06-14T11:00:08;28.90;15.30
1103;DHT22;538;42.654;23.376;2023-06-14T11:05:59;29.10;13.90
1103;DHT22;538;42.654;23.376;2023-06-14T11:08:39;29.30;13.40
1103;DHT22;538;42.654;23.376;2023-06-14T11:11:08;29.50;13.40
1103;DHT22;538;42.654;23.376;2023-06-14T11:13:37;29.40;13.00
1103;DHT22;538;42.654;23.376;2023-06-14T11:16:12;29.60;13.30
1103;DHT22;538;42.654;23.376;2023-06-14T11:21:07;29.30;12.00
1103;DHT22;538;42.654;23.376;2023-06-14T11:23:35;29.20;11.30
1103;DHT22;538;42.654;23.376;2023-06-14T11:26:02;29.10;11.40
1103;DHT22;538;42.654;23.376;2023-06-14T11:28:37;29.10;11.30
1103;DHT22;538;42.654;23.376;2023-06-14T11:31:05;29.10;12.10
1103;DHT22;538;42.654;23.376;2023-06-14T11:33:34;29.20;13.60
1103;DHT22;538;42.654;23.376;2023-06-14T11:36:02;29.10;13.20
1103;DHT22;538;42.654;23.376;2023-06-14T11:38:30;29.10;12.70
1103;DHT22;538;42.654;23.376;2023-06-14T11:41:00;29.70;13.00
1103;DHT22;538;42.654;23.376;2023-06-14T11:45:57;30.00;9.90
1103;DHT22;538;42.654;23.376;2023-06-14T11:48:37;30.20;6.90
1103;DHT22;538;42.654;23.376;2023-06-14T11:51:04;30.50;8.00
1103;DHT22;538;42.654;23.376;2023-06-14T11:55:59;30.40;7.50
1103;DHT22;538;42.654;23.376;2023-06-14T11:58:26;30.10;7.10
1103;DHT22;538;42.654;23.376;2023-06-14T12:03:25;30.10;10.00
1103;DHT22;538;42.654;23.376;2023-06-14T12:06:05;30.40;8.60
1103;DHT22;538;42.654;23.376;2023-06-14T12:08:33;30.70;8.30
1103;DHT22;538;42.654;23.376;2023-06-14T12:11:06;31.00;6.60
1103;DHT22;538;42.654;23.376;2023-06-14T12:13:34;31.60;6.30
1103;DHT22;538;42.654;23.376;2023-06-14T12:16:04;31.90;6.50
1103;DHT22;538;42.654;23.376;2023-06-14T12:18:32;32.20;6.10
1103;DHT22;538;42.654;23.376;2023-06-14T12:23:43;32.00;4.50
1103;DHT22;538;42.654;23.376;2023-06-14T12:31:05;30.50;6.60
1103;DHT22;538;42.654;23.376;2023-06-14T12:33:32;30.20;7.90
1103;DHT22;538;42.654;23.376;2023-06-14T12:35:58;29.90;9.00
1103;DHT22;538;42.654;23.376;2023-06-14T12:40:54;29.40;9.60
1103;DHT22;538;42.654;23.376;2023-06-14T12:43:21;29.20;9.50
1103;DHT22;538;42.654;23.376;2023-06-14T12:45:48;29.00;10.00
1103;DHT22;538;42.654;23.376;2023-06-14T12:50:42;28.40;9.80
1103;DHT22;538;42.654;23.376;2023-06-14T12:53:09;28.10;10.20
1103;DHT22;538;42.654;23.376;2023-06-14T12:58:05;27.80;12.00
1103;DHT22;538;42.654;23.376;2023-06-14T13:00:32;27.70;12.60
1103;DHT22;538;42.654;23.376;2023-06-14T13:02:59;27.60;10.50
1103;DHT22;538;42.654;23.376;2023-06-14T13:05:27;27.00;12.10
1103;DHT22;538;42.654;23.376;2023-06-14T13:07:54;26.50;14.30
1103;DHT22;538;42.654;23.376;2023-06-14T13:10:21;26.00;16.10
1103;DHT22;538;42.654;23.376;2023-06-14T13:15:17;25.20;20.40
1103;DHT22;538;42.654;23.376;2023-06-14T13:20:14;24.40;26.20
1103;DHT22;538;42.654;23.376;2023-06-14T13:22:41;23.90;28.00
1103;DHT22;538;42.654;23.376;2023-06-14T13:30:05;22.30;40.10
1103;DHT22;538;42.654;23.376;2023-06-14T13:32:34;21.90;43.50
1103;DHT22;538;42.654;23.376;2023-06-14T13:35:01;21.50;47.90
1103;DHT22;538;42.654;23.376;2023-06-14T13:37:29;21.40;55.40
1103;DHT22;538;42.654;23.376;2023-06-14T13:39:56;21.00;64.80
1103;DHT22;538;42.654;23.376;2023-06-14T13:42:23;20.90;72.00
1103;DHT22;538;42.654;23.376;2023-06-14T13:44:50;20.60;76.30
1103;DHT22;538;42.654;23.376;2023-06-14T13:49:46;20.40;76.00
1103;DHT22;538;42.654;23.376;2023-06-14T13:54:41;20.30;75.50
1103;DHT22;538;42.654;23.376;2023-06-14T13:57:09;20.20;74.30
1103;DHT22;538;42.654;23.376;2023-06-14T13:59:38;20.00;69.20
1103;DHT22;538;42.654;23.376;2023-06-14T14:02:05;20.00;71.40
1103;DHT22;538;42.654;23.376;2023-06-14T14:04:33;19.90;69.30
1103;DHT22;538;42.654;23.376;2023-06-14T14:07:03;19.80;67.20
1103;DHT22;538;42.654;23.376;2023-06-14T14:11:58;19.90;72.70
1103;DHT22;538;42.654;23.376;2023-06-14T14:14:26;20.00;72.80
1103;DHT22;538;42.654;23.376;2023-06-14T14:21:48;19.90;70.90
1103;DHT22;538;42.654;23.376;2023-06-14T14:24:17;19.80;72.10
1103;DHT22;538;42.654;23.376;2023-06-14T14:26:44;19.80;68.60
1103;DHT22;538;42.654;23.376;2023-06-14T14:31:40;19.80;66.80
1103;DHT22;538;42.654;23.376;2023-06-14T14:34:07;20.00;72.20
1103;DHT22;538;42.654;23.376;2023-06-14T14:36:34;20.20;79.40
1103;DHT22;538;42.654;23.376;2023-06-14T14:39:03;20.30;85.40
1103;DHT22;538;42.654;23.376;2023-06-14T14:41:32;20.60;89.70
1103;DHT22;538;42.654;23.376;2023-06-14T14:43:59;20.70;90.60
1103;DHT22;538;42.654;23.376;2023-06-14T14:46:26;20.80;90.70
1103;DHT22;538;42.654;23.376;2023-06-14T14:48:53;20.90;90.70
1103;DHT22;538;42.654;23.376;2023-06-14T14:51:20;20.90;90.30
1103;DHT22;538;42.654;23.376;2023-06-14T14:56:15;21.20;87.70
1103;DHT22;538;42.654;23.376;2023-06-14T14:58:44;21.30;86.90
1103;DHT22;538;42.654;23.376;2023-06-14T15:01:11;21.20;85.70
1103;DHT22;538;42.654;23.376;2023-06-14T15:03:37;21.30;85.30
1103;DHT22;538;42.654;23.376;2023-06-14T15:06:05;21.20;83.30
1103;DHT22;538;42.654;23.376;2023-06-14T15:08:32;21.30;82.00
1103;DHT22;538;42.654;23.376;2023-06-14T15:10:59;21.30;81.20
1103;DHT22;538;42.654;23.376;2023-06-14T15:13:26;21.30;80.30
1103;DHT22;538;42.654;23.376;2023-06-14T15:20:49;21.50;83.60
1103;DHT22;538;42.654;23.376;2023-06-14T15:23:17;21.40;85.00
1103;DHT22;538;42.654;23.376;2023-06-14T15:25:46;21.40;86.10
1103;DHT22;538;42.654;23.376;2023-06-14T15:28:13;21.50;86.90
1103;DHT22;538;42.654;23.376;2023-06-14T15:30:41;21.40;86.10
1103;DHT22;538;42.654;23.376;2023-06-14T15:33:09;21.40;85.60
1103;DHT22;538;42.654;23.376;2023-06-14T15:35:36;21.60;86.90
1103;DHT22;538;42.654;23.376;2023-06-14T15:40:31;21.40;87.80
1103;DHT22;538;42.654;23.376;2023-06-14T15:42:58;21.30;87.70
1103;DHT22;538;42.654;23.376;2023-06-14T15:45:25;21.30;86.60
1103;DHT22;538;42.654;23.376;2023-06-14T15:47:52;21.60;84.70
1103;DHT22;538;42.654;23.376;2023-06-14T15:50:21;21.50;85.10
1103;DHT22;538;42.654;23.376;2023-06-14T15:52:48;21.50;84.60
1103;DHT22;538;42.654;23.376;2023-06-14T15:55:15;21.60;85.50
1103;DHT22;538;42.654;23.376;2023-06-14T15:57:42;21.60;85.50
1103;DHT22;538;42.654;23.376;2023-06-14T16:00:10;21.50;83.40
1103;DHT22;538;42.654;23.376;2023-06-14T16:05:05;21.60;83.20
1103;DHT22;538;42.654;23.376;2023-06-14T16:07:33;21.40;82.30
1103;DHT22;538;42.654;23.376;2023-06-14T16:12:28;21.40;85.10
1103;DHT22;538;42.654;23.376;2023-06-14T16:14:55;21.50;85.80
1103;DHT22;538;42.654;23.376;2023-06-14T16:17:22;21.50;85.50
1103;DHT22;538;42.654;23.376;2023-06-14T16:19:50;21.60;84.50
1103;DHT22;538;42.654;23.376;2023-06-14T16:22:19;21.50;82.40
1103;DHT22;538;42.654;23.376;2023-06-14T16:24:48;21.40;80.70
1103;DHT22;538;42.654;23.376;2023-06-14T16:27:15;21.50;80.50
1103;DHT22;538;42.654;23.376;2023-06-14T16:29:42;21.30;77.40
1103;DHT22;538;42.654;23.376;2023-06-14T16:32:10;21.30;77.40
1103;DHT22;538;42.654;23.376;2023-06-14T16:34:37;21.20;80.00
1103;DHT22;538;42.654;23.376;2023-06-14T16:37:04;21.10;81.60
1103;DHT22;538;42.654;23.376;2023-06-14T16:42:03;21.00;76.10
1103;DHT22;538;42.654;23.376;2023-06-14T16:44:30;20.90;78.30
1103;DHT22;538;42.654;23.376;2023-06-14T16:46:57;21.10;78.80
1103;DHT22;538;42.654;23.376;2023-06-14T16:49:26;20.80;76.00
1103;DHT22;538;42.654;23.376;2023-06-14T16:51:54;20.70;73.90
1103;DHT22;538;42.654;23.376;2023-06-14T16:56:48;20.60;76.20
1103;DHT22;538;42.654;23.376;2023-06-14T16:59:17;20.60;74.50
1103;DHT22;538;42.654;23.376;2023-06-14T17:01:44;20.40;71.70
1103;DHT22;538;42.654;23.376;2023-06-14T17:04:26;20.40;72.50
1103;DHT22;538;42.654;23.376;2023-06-14T17:06:52;20.20;73.40
1103;DHT22;538;42.654;23.376;2023-06-14T17:09:21;20.20;74.10
1103;DHT22;538;42.654;23.376;2023-06-14T17:14:17;20.10;76.00
1103;DHT22;538;42.654;23.376;2023-06-14T17:19:14;20.10;77.20
1103;DHT22;538;42.654;23.376;2023-06-14T17:29:18;19.60;75.40
1103;DHT22;538;42.654;23.376;2023-06-14T17:39:16;19.50;77.40
1103;DHT22;538;42.654;23.376;2023-06-14T17:41:43;19.50;74.40
1103;DHT22;538;42.654;23.376;2023-06-14T17:44:11;19.60;75.40
1103;DHT22;538;42.654;23.376;2023-06-14T17:46:39;19.70;74.20
1103;DHT22;538;42.654;23.376;2023-06-14T17:51:34;19.60;74.80
1103;DHT22;538;42.654;23.376;2023-06-14T17:56:29;19.60;75.60
1103;DHT22;538;42.654;23.376;2023-06-14T17:58:59;19.60;77.20
1103;DHT22;538;42.654;23.376;2023-06-14T18:03:57;19.70;79.70
1103;DHT22;538;42.654;23.376;2023-06-14T18:06:26;19.60;80.40
1103;DHT22;538;42.654;23.376;2023-06-14T18:11:21;19.60;77.00
1103;DHT22;538;42.654;23.376;2023-06-14T18:16:20;19.70;72.60
1103;DHT22;538;42.654;23.376;2023-06-14T18:19:06;19.60;69.90
1103;DHT22;538;42.654;23.376;2023-06-14T18:21:35;19.50;68.10
1103;DHT22;538;42.654;23.376;2023-06-14T18:26:39;19.60;62.40
1103;DHT22;538;42.654;23.376;2023-06-14T18:31:36;19.60;65.40
1103;DHT22;538;42.654;23.376;2023-06-14T18:34:09;19.80;66.50
1103;DHT22;538;42.654;23.376;2023-06-14T18:51:31;19.90;78.00
1103;DHT22;538;42.654;23.376;2023-06-14T18:53:59;20.00;79.90
1103;DHT22;538;42.654;23.376;2023-06-14T18:58:58;20.00;80.40
1103;DHT22;538;42.654;23.376;2023-06-14T19:01:28;19.90;80.80
1103;DHT22;538;42.654;23.376;2023-06-14T19:08:59;20.10;82.30
1103;DHT22;538;42.654;23.376;2023-06-14T19:11:26;19.90;81.20
1103;DHT22;538;42.654;23.376;2023-06-14T19:33:45;19.80;82.20
1103;DHT22;538;42.654;23.376;2023-06-14T19:36:13;19.50;81.60
1103;DHT22;538;42.654;23.376;2023-06-14T19:38:42;19.50;83.80
1103;DHT22;538;42.654;23.376;2023-06-14T19:43:38;19.70;89.70
1103;DHT22;538;42.654;23.376;2023-06-14T19:48:32;19.40;90.50
1103;DHT22;538;42.654;23.376;2023-06-14T19:58:39;19.30;87.00
1103;DHT22;538;42.654;23.376;2023-06-14T20:01:10;19.30;90.50
1103;DHT22;538;42.654;23.376;2023-06-14T20:03:39;22.30;94.00
1103;DHT22;538;42.654;23.376;2023-06-14T20:06:09;19.20;94.40
1103;DHT22;538;42.654;23.376;2023-06-14T20:23:31;19.60;96.30
1103;DHT22;538;42.654;23.376;2023-06-14T20:26:03;18.90;97.20
1103;DHT22;538;42.654;23.376;2023-06-14T20:28:33;18.90;98.00
1103;DHT22;538;42.654;23.376;2023-06-14T20:51:17;18.20;99.90
1103;DHT22;538;42.654;23.376;2023-06-14T21:01:24;17.90;99.90
1103;DHT22;538;42.654;23.376;2023-06-14T21:04:01;17.80;99.90
1103;DHT22;538;42.654;23.376;2023-06-14T21:11:25;17.90;99.90
1103;DHT22;538;42.654;23.376;2023-06-14T21:16:20;18.00;99.90
1103;DHT22;538;42.654;23.376;2023-06-14T21:18:47;17.90;99.90
1103;DHT22;538;42.654;23.376;2023-06-14T21:23:44;18.00;99.90
1103;DHT22;538;42.654;23.376;2023-06-14T21:26:12;18.00;99.90
1103;DHT22;538;42.654;23.376;2023-06-14T21:31:09;18.00;99.90
1103;DHT22;538;42.654;23.376;2023-06-14T21:33:38;18.00;99.90
1103;DHT22;538;42.654;23.376;2023-06-14T21:36:06;18.00;99.90
1103;DHT22;538;42.654;23.376;2023-06-14T21:38:36;18.10;99.90
1103;DHT22;538;42.654;23.376;2023-06-14T21:41:03;18.00;99.90
1103;DHT22;538;42.654;23.376;2023-06-14T21:43:30;18.00;99.90
1103;DHT22;538;42.654;23.376;2023-06-14T21:48:25;18.00;99.90
1103;DHT22;538;42.654;23.376;2023-06-14T21:50:52;18.30;99.90
1103;DHT22;538;42.654;23.376;2023-06-14T21:53:19;18.20;99.90
1103;DHT22;538;42.654;23.376;2023-06-14T21:55:48;17.90;99.90
1103;DHT22;538;42.654;23.376;2023-06-14T21:58:15;17.80;99.90
1103;DHT22;538;42.654;23.376;2023-06-14T22:13:00;18.30;99.90
1103;DHT22;538;42.654;23.376;2023-06-14T22:15:27;18.30;99.90
1103;DHT22;538;42.654;23.376;2023-06-14T22:17:54;18.00;99.90
1103;DHT22;538;42.654;23.376;2023-06-14T22:20:22;17.90;99.90
1103;DHT22;538;42.654;23.376;2023-06-14T22:22:54;18.20;99.90
1103;DHT22;538;42.654;23.376;2023-06-14T22:25:23;18.40;99.90
1103;DHT22;538;42.654;23.376;2023-06-14T22:27:50;18.20;99.90
1103;DHT22;538;42.654;23.376;2023-06-14T22:32:47;18.00;99.90
1103;DHT22;538;42.654;23.376;2023-06-14T22:35:16;18.10;99.90
1103;DHT22;538;42.654;23.376;2023-06-14T22:40:11;18.10;99.90
1103;DHT22;538;42.654;23.376;2023-06-14T22:42:40;18.10;99.90
1103;DHT22;538;42.654;23.376;2023-06-14T22:45:11;18.20;99.90
1103;DHT22;538;42.654;23.376;2023-06-14T22:47:43;18.30;99.90
1103;DHT22;538;42.654;23.376;2023-06-14T22:52:38;18.40;99.90
1103;DHT22;538;42.654;23.376;2023-06-14T22:55:06;18.30;99.90
1103;DHT22;538;42.654;23.376;2023-06-14T22:57:34;18.30;99.90
1103;DHT22;538;42.654;23.376;2023-06-14T23:00:02;18.30;99.90
1103;DHT22;538;42.654;23.376;2023-06-14T23:02:37;18.30;99.90
1103;DHT22;538;42.654;23.376;2023-06-14T23:05:06;18.30;99.90
1103;DHT22;538;42.654;23.376;2023-06-14T23:07:35;18.30;99.90
1103;DHT22;538;42.654;23.376;2023-06-14T23:10:03;18.30;99.90
1103;DHT22;538;42.654;23.376;2023-06-14T23:12:30;18.10;99.90
1103;DHT22;538;42.654;23.376;2023-06-14T23:14:59;18.20;99.90
1103;DHT22;538;42.654;23.376;2023-06-14T23:19:56;18.10;99.90
1103;DHT22;538;42.654;23.376;2023-06-14T23:22:28;18.00;99.90
1103;DHT22;538;42.654;23.376;2023-06-14T23:25:01;18.30;99.90
1103;DHT22;538;42.654;23.376;2023-06-14T23:27:30;18.40;99.90
1103;DHT22;538;42.654;23.376;2023-06-14T23:32:26;18.20;99.90
1103;DHT22;538;42.654;23.376;2023-06-14T23:39:52;18.20;99.90
1103;DHT22;538;42.654;23.376;2023-06-14T23:44:56;18.30;99.90
1103;DHT22;538;42.654;23.376;2023-06-14T23:47:27;18.30;99.90
1103;DHT22;538;42.654;23.376;2023-06-14T23:49:55;18.30;99.90
1103;DHT22;538;42.654;23.376;2023-06-14T23:52:22;18.20;99.90
1103;DHT22;538;42.654;23.376;2023-06-14T23:54:50;18.40;99.90
1103;DHT22;538;42.654;23.376;2023-06-14T23:57:19;18.30;99.90
1103;DHT22;538;42.654;23.376;2023-06-14T23:59:46;18.10;99.90
